Time;durP1;ratioP1;P1;durP2;ratioP2;P2;SDS_P1;SDS_P2;PMS_P1;PMS_P2;Temp;Humidity;BMP_temperature;BMP_pressure;BME280_temperature;BME280_humidity;BME280_pressure;Samples;Min_cycle;Max_cycle;Signal;HPM_P1;HPM_P2
2023/04/25 00:02:08;;;;;;;5.32;4.88;;;8.20;99.90;;;;;;4149553;28;20065;-58
2023/04/25 00:04:29;;;;;;;5.40;5.20;;;8.10;99.90;;;;;;4153243;28;20449;-58
2023/04/25 00:06:49;;;;;;;7.47;5.20;;;8.00;99.90;;;;;;4152256;28;20060;-58
2023/04/25 00:09:10;;;;;;;8.07;5.00;;;7.90;99.90;;;;;;4149294;28;20076;-58
2023/04/25 00:11:30;;;;;;;7.53;5.57;;;7.90;99.90;;;;;;4151912;28;20074;-59
2023/04/25 00:13:50;;;;;;;4.78;4.57;;;7.90;99.90;;;;;;4152708;28;20056;-59
2023/04/25 00:16:11;;;;;;;6.45;4.80;;;8.00;99.90;;;;;;4152481;28;20143;-58
2023/04/25 00:18:32;;;;;;;9.02;5.88;;;8.10;99.90;;;;;;4150473;28;20088;-58
2023/04/25 00:20:52;;;;;;;6.95;5.90;;;8.00;99.90;;;;;;4151825;28;20040;-59
2023/04/25 00:23:18;;;;;;;4.90;4.55;;;7.70;99.90;;;;;;4149903;28;20048;-58
2023/04/25 00:25:38;;;;;;;5.40;4.88;;;7.60;99.90;;;;;;4152138;28;20089;-58
2023/04/25 00:27:58;;;;;;;5.22;4.82;;;7.70;99.90;;;;;;4152639;28;20057;-59
2023/04/25 00:30:18;;;;;;;5.70;5.18;;;7.80;99.90;;;;;;4149622;28;20105;-58
2023/04/25 00:32:38;;;;;;;5.90;5.43;;;7.80;99.90;;;;;;4146189;28;20120;-58
2023/04/25 00:34:58;;;;;;;10.60;6.05;;;7.70;99.90;;;;;;4150122;28;20128;-58
2023/04/25 00:37:19;;;;;;;7.82;5.85;;;7.60;99.90;;;;;;4154535;28;20053;-58
2023/04/25 00:39:39;;;;;;;5.60;4.03;;;7.40;99.90;;;;;;4154685;28;20060;-58
2023/04/25 00:42:00;;;;;;;4.50;4.28;;;7.40;99.90;;;;;;4152597;28;20108;-59
2023/04/25 00:44:21;;;;;;;4.88;4.68;;;7.40;99.90;;;;;;4150814;28;20085;-58
2023/04/25 00:46:41;;;;;;;6.30;5.18;;;7.50;99.90;;;;;;4152217;28;20073;-58
2023/04/25 00:49:00;;;;;;;5.63;5.35;;;7.40;99.90;;;;;;4152416;28;20045;-58
2023/04/25 00:51:21;;;;;;;9.93;4.90;;;7.40;99.90;;;;;;4153787;28;20054;-58
2023/04/25 00:53:41;;;;;;;6.45;5.80;;;7.50;99.90;;;;;;4144976;28;20367;-58
2023/04/25 00:56:01;;;;;;;5.18;4.78;;;7.40;99.90;;;;;;4150622;28;20077;-58
2023/04/25 00:58:22;;;;;;;5.43;4.93;;;7.40;99.90;;;;;;4151928;28;20053;-58
2023/04/25 01:00:42;;;;;;;9.55;5.07;;;7.40;99.90;;;;;;4150386;28;20054;-58
2023/04/25 01:03:03;;;;;;;6.70;6.18;;;7.40;99.90;;;;;;4204660;22;20091;-58
2023/04/25 01:05:23;;;;;;;8.32;5.55;;;7.30;99.90;;;;;;4207694;28;20074;-58
2023/04/25 01:07:43;;;;;;;6.03;5.63;;;7.40;99.90;;;;;;4211221;28;20059;-58
2023/04/25 01:10:05;;;;;;;7.47;4.03;;;7.40;99.90;;;;;;4207605;28;20253;-58
2023/04/25 01:12:25;;;;;;;6.18;5.10;;;7.40;99.90;;;;;;4206367;28;20047;-58
2023/04/25 01:14:46;;;;;;;5.95;5.45;;;7.40;99.90;;;;;;4207279;28;20070;-59
2023/04/25 01:17:07;;;;;;;4.95;4.57;;;7.30;99.90;;;;;;4203178;28;20094;-58
2023/04/25 01:19:27;;;;;;;5.05;3.65;;;7.40;99.90;;;;;;4206423;28;20230;-58
2023/04/25 01:21:47;;;;;;;6.43;5.05;;;7.50;99.90;;;;;;4205660;28;20172;-58
2023/04/25 01:24:08;;;;;;;9.75;4.82;;;7.60;99.90;;;;;;4200411;28;20047;-59
2023/04/25 01:26:28;;;;;;;6.07;5.35;;;7.50;99.90;;;;;;4201947;28;20255;-58
2023/04/25 01:28:49;;;;;;;7.40;5.25;;;7.40;99.90;;;;;;4207578;28;20079;-58
2023/04/25 01:31:09;;;;;;;9.45;5.30;;;7.40;99.90;;;;;;4205053;28;20125;-58
2023/04/25 01:33:29;;;;;;;7.63;5.40;;;7.40;99.90;;;;;;4203196;28;20071;-58
2023/04/25 01:35:49;;;;;;;5.88;5.30;;;7.30;99.90;;;;;;4199102;28;20056;-58
2023/04/25 01:38:10;;;;;;;5.85;5.45;;;7.40;99.90;;;;;;4208390;28;20081;-58
2023/04/25 01:40:30;;;;;;;13.68;5.88;;;7.30;99.90;;;;;;4203607;28;20144;-58
2023/04/25 01:42:50;;;;;;;5.90;5.60;;;7.20;99.90;;;;;;4203753;28;20058;-59
2023/04/25 01:45:11;;;;;;;7.38;6.78;;;7.10;99.90;;;;;;4213499;28;20063;-58
2023/04/25 01:47:31;;;;;;;8.18;7.60;;;7.10;99.90;;;;;;4207083;28;20078;-59
2023/04/25 01:49:52;;;;;;;5.75;5.45;;;7.00;99.90;;;;;;4202357;28;20052;-57
2023/04/25 01:52:12;;;;;;;6.68;5.45;;;7.00;99.90;;;;;;4210232;28;20074;-58
2023/04/25 01:54:32;;;;;;;6.07;5.63;;;7.10;99.90;;;;;;4208811;28;20052;-58
2023/04/25 01:56:51;;;;;;;6.65;5.68;;;7.10;99.90;;;;;;4205562;28;20365;-58
2023/04/25 01:59:11;;;;;;;5.18;4.93;;;7.00;99.90;;;;;;4204039;28;20085;-58
2023/04/25 02:01:31;;;;;;;5.57;5.15;;;7.00;99.90;;;;;;4208117;28;20119;-58
2023/04/25 02:03:51;;;;;;;5.63;5.22;;;7.00;99.90;;;;;;4206287;28;20043;-58
2023/04/25 02:06:12;;;;;;;5.53;5.22;;;7.00;99.90;;;;;;4204658;28;20090;-58
2023/04/25 02:08:31;;;;;;;6.40;5.03;;;7.10;99.90;;;;;;4207539;28;20044;-58
2023/04/25 02:10:51;;;;;;;7.25;6.72;;;7.20;99.90;;;;;;4206972;28;20075;-59
2023/04/25 02:13:11;;;;;;;5.85;5.38;;;7.10;99.90;;;;;;4207527;28;20064;-58
2023/04/25 02:15:31;;;;;;;6.18;5.78;;;7.20;99.90;;;;;;4206108;28;20064;-58
2023/04/25 02:17:54;;;;;;;6.00;5.70;;;7.10;99.90;;;;;;4206064;28;20063;-58
2023/04/25 02:20:15;;;;;;;6.05;5.78;;;7.10;99.90;;;;;;4206360;28;20077;-58
2023/04/25 02:22:35;;;;;;;6.57;5.95;;;7.10;99.90;;;;;;4203488;28;20044;-58
2023/04/25 02:24:54;;;;;;;6.43;5.15;;;7.10;99.90;;;;;;4203567;28;20056;-58
2023/04/25 02:27:14;;;;;;;8.82;5.90;;;7.20;99.90;;;;;;4206957;28;20047;-58
2023/04/25 02:29:34;;;;;;;6.60;6.13;;;7.20;99.90;;;;;;4205434;28;20047;-58
2023/04/25 02:31:54;;;;;;;5.43;5.10;;;7.20;99.90;;;;;;4206474;28;20243;-58
2023/04/25 02:34:15;;;;;;;7.03;6.55;;;7.20;99.90;;;;;;4206830;28;20062;-58
2023/04/25 02:36:35;;;;;;;6.32;4.88;;;7.20;99.90;;;;;;4204050;28;20415;-59
2023/04/25 02:38:55;;;;;;;7.75;7.15;;;7.30;99.90;;;;;;4203837;28;20047;-59
2023/04/25 02:41:15;;;;;;;6.35;3.88;;;7.20;99.90;;;;;;4208069;28;20089;-59
2023/04/25 02:43:35;;;;;;;7.80;4.70;;;7.10;99.90;;;;;;4203851;28;20047;-58
2023/04/25 02:45:55;;;;;;;9.73;5.63;;;6.70;99.90;;;;;;4207240;28;20362;-58
2023/04/25 02:48:14;;;;;;;11.52;5.05;;;6.50;99.90;;;;;;4204224;28;20036;-58
2023/04/25 02:50:34;;;;;;;4.40;3.95;;;6.60;99.90;;;;;;4206208;28;20048;-58
2023/04/25 02:52:54;;;;;;;6.47;4.50;;;6.80;99.90;;;;;;4206487;28;20423;-58
2023/04/25 02:55:14;;;;;;;5.72;4.95;;;6.80;99.90;;;;;;4202537;28;20071;-59
2023/04/25 02:57:34;;;;;;;6.88;5.18;;;7.10;99.90;;;;;;4205645;28;20376;-58
2023/04/25 02:59:54;;;;;;;7.10;5.03;;;7.20;99.90;;;;;;4206680;28;20117;-58
2023/04/25 03:02:14;;;;;;;10.18;5.45;;;7.20;99.90;;;;;;4203877;28;20051;-59
2023/04/25 03:04:34;;;;;;;9.13;5.20;;;7.30;99.90;;;;;;4198532;28;20040;-58
2023/04/25 03:06:54;;;;;;;9.00;4.50;;;7.50;99.90;;;;;;4205686;28;20123;-59
2023/04/25 03:09:14;;;;;;;8.82;4.82;;;7.50;99.90;;;;;;4203040;28;20055;-58
2023/04/25 03:11:34;;;;;;;6.82;4.95;;;7.50;99.90;;;;;;4198273;28;20048;-58
2023/04/25 03:13:53;;;;;;;9.38;5.80;;;7.50;99.90;;;;;;4200748;28;20106;-59
2023/04/25 03:16:13;;;;;;;10.40;5.80;;;7.50;99.90;;;;;;4205222;28;20055;-59
2023/04/25 03:18:33;;;;;;;9.07;6.50;;;7.60;99.90;;;;;;4203309;28;20113;-59
2023/04/25 03:20:52;;;;;;;4.57;4.20;;;7.60;99.90;;;;;;4200950;28;20086;-58
2023/04/25 03:23:12;;;;;;;5.57;5.18;;;7.50;99.90;;;;;;4204624;28;20090;-59
2023/04/25 03:25:32;;;;;;;9.45;5.32;;;7.20;99.90;;;;;;4205264;28;20035;-58
2023/04/25 03:27:52;;;;;;;6.38;5.78;;;7.30;99.90;;;;;;4204619;28;20091;-58
2023/04/25 03:30:11;;;;;;;7.68;4.70;;;7.50;99.90;;;;;;4208467;28;20089;-58
2023/04/25 03:32:31;;;;;;;6.88;6.13;;;7.30;99.90;;;;;;4211895;28;20122;-59
2023/04/25 03:34:51;;;;;;;6.85;4.70;;;7.30;99.90;;;;;;4209364;28;20082;-59
2023/04/25 03:37:11;;;;;;;7.68;4.85;;;7.10;99.90;;;;;;4209418;28;20043;-59
2023/04/25 03:39:31;;;;;;;6.10;4.20;;;7.00;99.90;;;;;;4210438;28;20086;-59
2023/04/25 03:41:50;;;;;;;4.40;4.13;;;7.10;99.90;;;;;;4209508;28;20295;-58
2023/04/25 03:44:10;;;;;;;6.20;4.40;;;7.20;99.90;;;;;;4209148;28;20300;-59
2023/04/25 03:46:30;;;;;;;6.03;5.03;;;7.30;99.90;;;;;;4208191;28;20047;-58
2023/04/25 03:48:50;;;;;;;5.78;4.10;;;7.40;99.90;;;;;;4209445;28;20074;-59
2023/04/25 03:51:09;;;;;;;5.88;5.45;;;7.50;99.90;;;;;;4208118;28;20107;-59
2023/04/25 03:53:29;;;;;;;6.40;4.90;;;7.50;99.90;;;;;;4207690;28;20199;-59
2023/04/25 03:55:49;;;;;;;5.20;4.40;;;7.50;99.90;;;;;;4206829;28;20095;-58
2023/04/25 03:58:08;;;;;;;6.07;5.05;;;7.50;99.90;;;;;;4206898;28;20075;-58
2023/04/25 04:00:28;;;;;;;9.02;5.63;;;7.40;99.90;;;;;;4193484;28;20076;-59
2023/04/25 04:02:48;;;;;;;11.30;5.82;;;7.60;99.90;;;;;;4206729;28;20052;-59
2023/04/25 04:05:09;;;;;;;9.82;5.50;;;7.80;99.90;;;;;;4207242;28;20112;-59
2023/04/25 04:07:29;;;;;;;10.45;5.18;;;7.90;99.90;;;;;;4207363;28;20097;-59
2023/04/25 04:09:49;;;;;;;4.70;4.50;;;7.90;99.90;;;;;;4208753;28;20270;-58
2023/04/25 04:12:09;;;;;;;5.22;4.75;;;7.60;99.90;;;;;;4207550;28;20044;-59
2023/04/25 04:14:29;;;;;;;6.05;5.15;;;7.40;99.90;;;;;;4204362;28;20108;-59
2023/04/25 04:16:51;;;;;;;6.20;5.80;;;7.40;99.90;;;;;;4208083;28;20072;-59
2023/04/25 04:19:11;;;;;;;6.03;5.75;;;7.40;99.90;;;;;;4204976;28;20074;-59
2023/04/25 04:21:31;;;;;;;5.50;5.30;;;7.50;99.90;;;;;;4205508;28;20291;-59
2023/04/25 04:23:51;;;;;;;6.30;5.75;;;7.40;99.90;;;;;;4203556;28;20056;-59
2023/04/25 04:26:12;;;;;;;6.28;5.72;;;7.30;99.90;;;;;;4206547;28;20059;-59
2023/04/25 04:28:32;;;;;;;10.73;5.55;;;7.30;99.90;;;;;;4204519;28;20238;-58
2023/04/25 04:30:52;;;;;;;11.73;5.18;;;7.60;99.90;;;;;;4207139;28;20094;-59
2023/04/25 04:33:12;;;;;;;11.73;4.45;;;7.60;99.90;;;;;;4208934;28;20354;-59
2023/04/25 04:35:32;;;;;;;11.38;5.55;;;7.70;99.90;;;;;;4205310;28;20043;-58
2023/04/25 04:37:52;;;;;;;6.07;4.60;;;7.70;99.90;;;;;;4207421;28;20079;-59
2023/04/25 04:40:15;;;;;;;8.18;5.15;;;7.60;99.90;;;;;;4208006;28;20274;-58
2023/04/25 04:42:36;;;;;;;10.23;4.95;;;8.10;99.90;;;;;;4207148;28;20074;-59
2023/04/25 04:44:55;;;;;;;7.45;4.93;;;8.30;99.90;;;;;;4202675;28;20085;-59
2023/04/25 04:47:15;;;;;;;6.68;5.45;;;8.50;99.90;;;;;;4205759;28;20044;-59
2023/04/25 04:49:36;;;;;;;10.23;5.07;;;8.60;99.90;;;;;;4207822;28;20235;-59
2023/04/25 04:51:56;;;;;;;11.35;5.65;;;8.60;99.90;;;;;;4206353;28;20051;-59
2023/04/25 04:54:18;;;;;;;11.38;5.65;;;8.60;99.90;;;;;;4207617;28;20055;-59
2023/04/25 04:56:38;;;;;;;7.68;4.63;;;8.70;99.90;;;;;;4209304;28;20043;-59
2023/04/25 04:58:59;;;;;;;9.55;4.20;;;8.70;99.90;;;;;;4208603;28;20052;-59
2023/04/25 05:01:19;;;;;;;5.97;5.22;;;8.80;99.90;;;;;;4204601;28;20048;-59
2023/04/25 05:03:39;;;;;;;8.20;4.13;;;8.90;99.90;;;;;;4209912;28;20094;-59
2023/04/25 05:05:59;;;;;;;11.75;5.50;;;8.90;99.90;;;;;;4209026;28;20055;-59
2023/04/25 05:08:19;;;;;;;9.23;5.10;;;8.90;99.90;;;;;;4206462;28;20094;-59
2023/04/25 05:10:39;;;;;;;8.35;6.72;;;8.90;99.90;;;;;;4207951;28;20140;-59
2023/04/25 05:12:59;;;;;;;5.32;4.45;;;8.90;99.90;;;;;;4192142;28;20048;-59
2023/04/25 05:15:19;;;;;;;4.30;4.00;;;8.60;99.90;;;;;;4207179;28;20071;-59
2023/04/25 05:17:38;;;;;;;5.40;4.63;;;8.50;99.90;;;;;;4206946;28;20039;-59
2023/04/25 05:19:59;;;;;;;4.90;4.57;;;8.40;99.90;;;;;;4204068;28;20050;-59
2023/04/25 05:22:19;;;;;;;10.88;4.18;;;8.30;99.90;;;;;;4205260;28;20259;-59
2023/04/25 05:24:38;;;;;;;5.10;4.47;;;8.30;99.90;;;;;;4205722;28;20388;-59
2023/04/25 05:26:58;;;;;;;6.55;5.55;;;8.30;99.90;;;;;;4204165;28;20055;-59
2023/04/25 05:29:18;;;;;;;5.28;4.88;;;8.40;99.90;;;;;;4205611;28;20044;-59
2023/04/25 05:31:38;;;;;;;5.45;3.85;;;8.40;99.90;;;;;;4206831;28;20039;-59
2023/04/25 05:33:59;;;;;;;7.85;4.15;;;8.60;99.90;;;;;;4206260;28;20052;-59
2023/04/25 05:36:19;;;;;;;5.47;3.72;;;8.80;99.90;;;;;;4202492;28;20107;-59
2023/04/25 05:38:39;;;;;;;9.25;6.07;;;8.90;99.90;;;;;;4200885;28;20051;-59
2023/04/25 05:40:58;;;;;;;9.82;3.85;;;8.80;99.90;;;;;;4208674;28;20059;-59
2023/04/25 05:43:18;;;;;;;9.05;4.07;;;8.70;99.90;;;;;;4203977;28;20056;-59
2023/04/25 05:45:38;;;;;;;4.97;3.90;;;8.80;99.90;;;;;;4204908;28;20063;-59
2023/04/25 05:47:57;;;;;;;7.47;3.85;;;8.90;99.90;;;;;;4207752;28;20269;-59
2023/04/25 05:50:18;;;;;;;5.45;4.85;;;8.90;99.90;;;;;;4205368;28;20370;-59
2023/04/25 05:52:38;;;;;;;6.30;4.18;;;8.90;99.90;;;;;;4206127;28;20047;-59
2023/04/25 05:54:58;;;;;;;6.95;5.85;;;8.80;99.90;;;;;;4208252;28;20235;-59
2023/04/25 05:57:26;;;;;;;9.30;4.18;;;8.80;99.90;;;;;;4205910;28;20362;-59
2023/04/25 05:59:46;;;;;;;10.10;5.30;;;8.90;99.90;;;;;;4205833;28;20405;-59
2023/04/25 06:02:06;;;;;;;14.98;4.90;;;8.90;99.90;;;;;;4205151;28;20086;-59
2023/04/25 06:04:26;;;;;;;5.43;5.13;;;9.00;99.90;;;;;;4208216;28;20101;-59
2023/04/25 06:06:46;;;;;;;13.77;7.20;;;9.10;99.90;;;;;;4203454;28;20270;-59
2023/04/25 06:09:06;;;;;;;7.07;4.72;;;9.10;99.90;;;;;;4204510;28;20051;-59
2023/04/25 06:11:26;;;;;;;8.15;6.55;;;9.10;99.90;;;;;;4206332;28;20056;-59
2023/04/25 06:13:46;;;;;;;5.50;5.03;;;9.10;99.90;;;;;;4201704;28;20079;-59
2023/04/25 06:16:06;;;;;;;9.80;5.20;;;9.20;99.90;;;;;;4200647;28;20048;-59
2023/04/25 06:18:26;;;;;;;7.57;6.18;;;9.30;99.90;;;;;;4203519;28;20059;-59
2023/04/25 06:20:46;;;;;;;7.60;6.90;;;9.30;99.90;;;;;;4200487;28;20043;-59
2023/04/25 06:23:06;;;;;;;9.00;6.55;;;9.30;99.90;;;;;;4194999;28;20155;-59
2023/04/25 06:25:26;;;;;;;11.80;5.90;;;9.20;99.90;;;;;;4199656;28;20438;-59
2023/04/25 06:27:46;;;;;;;6.15;5.28;;;9.10;99.90;;;;;;4208598;28;20051;-60
2023/04/25 06:30:07;;;;;;;5.65;5.07;;;9.20;99.90;;;;;;4208980;28;20051;-60
2023/04/25 06:32:29;;;;;;;48.10;7.20;;;9.30;99.90;;;;;;4206656;28;20078;-57
2023/04/25 06:34:50;;;;;;;6.00;5.53;;;9.50;99.90;;;;;;4208894;28;20043;-59
2023/04/25 06:37:10;;;;;;;8.90;4.10;;;9.50;99.90;;;;;;4192539;28;20380;-59
2023/04/25 06:39:29;;;;;;;9.15;4.55;;;9.60;99.90;;;;;;4206065;28;20085;-60
2023/04/25 06:41:49;;;;;;;10.40;5.70;;;9.60;99.90;;;;;;4207288;28;20281;-60
2023/04/25 06:44:09;;;;;;;4.22;3.90;;;9.70;99.90;;;;;;4209311;28;20063;-59
2023/04/25 06:46:29;;;;;;;6.28;4.03;;;9.70;99.90;;;;;;4205319;28;20075;-59
2023/04/25 06:48:50;;;;;;;7.90;4.85;;;9.80;99.90;;;;;;4204423;28;20059;-59
2023/04/25 06:51:10;;;;;;;11.13;4.18;;;9.80;99.90;;;;;;4207021;28;20089;-59
2023/04/25 06:53:29;;;;;;;5.68;3.55;;;9.70;99.90;;;;;;4206855;28;20131;-59
2023/04/25 06:55:50;;;;;;;10.50;3.85;;;9.70;99.90;;;;;;4205440;28;20266;-59
2023/04/25 06:58:09;;;;;;;5.35;4.70;;;9.80;99.90;;;;;;4204112;28;20102;-58
2023/04/25 07:00:30;;;;;;;7.97;4.05;;;9.90;99.90;;;;;;4203349;28;20043;-59
2023/04/25 07:02:51;;;;;;;6.25;3.92;;;10.00;99.90;;;;;;4205199;28;20047;-59
2023/04/25 07:05:11;;;;;;;5.95;3.80;;;10.00;99.90;;;;;;4204466;28;20112;-59
2023/04/25 07:07:30;;;;;;;10.85;5.55;;;10.00;99.90;;;;;;4201473;28;20051;-59
2023/04/25 07:09:50;;;;;;;5.00;3.45;;;10.00;99.90;;;;;;4203430;28;20044;-59
2023/04/25 07:12:10;;;;;;;6.85;4.15;;;10.00;99.90;;;;;;4203605;28;20051;-59
2023/04/25 07:14:30;;;;;;;8.05;4.20;;;10.00;99.90;;;;;;4198322;28;20052;-59
2023/04/25 07:16:50;;;;;;;7.50;5.18;;;10.00;99.90;;;;;;4201926;28;20047;-60
2023/04/25 07:19:10;;;;;;;7.60;4.05;;;10.00;99.90;;;;;;4205254;28;20208;-59
2023/04/25 07:21:30;;;;;;;7.68;3.97;;;10.00;99.90;;;;;;4202954;28;20302;-59
2023/04/25 07:23:50;;;;;;;8.88;4.88;;;10.00;99.90;;;;;;4199586;28;20083;-59
2023/04/25 07:26:10;;;;;;;8.75;4.10;;;10.10;99.90;;;;;;4199869;28;20052;-59
2023/04/25 07:28:30;;;;;;;7.50;3.63;;;10.20;99.90;;;;;;4206739;28;20060;-59
2023/04/25 07:30:50;;;;;;;7.03;3.50;;;10.20;99.90;;;;;;4202375;28;20155;-59
2023/04/25 07:33:10;;;;;;;16.38;4.13;;;10.30;99.90;;;;;;4201860;28;20071;-58
2023/04/25 07:35:30;;;;;;;7.45;2.72;;;10.40;99.90;;;;;;4210145;28;20043;-59
2023/04/25 07:37:50;;;;;;;5.63;4.47;;;10.30;99.90;;;;;;4205681;28;20285;-59
2023/04/25 07:40:10;;;;;;;6.80;5.03;;;10.30;99.90;;;;;;4203582;28;20048;-59
2023/04/25 07:42:30;;;;;;;4.85;3.55;;;10.40;99.90;;;;;;4210295;28;20047;-59
2023/04/25 07:44:51;;;;;;;9.93;4.40;;;10.40;99.90;;;;;;4207030;28;20094;-59
2023/04/25 07:47:11;;;;;;;4.00;3.60;;;10.40;99.90;;;;;;4206341;28;20060;-59
2023/04/25 07:49:31;;;;;;;10.05;5.28;;;10.40;99.90;;;;;;4205028;28;20044;-59
2023/04/25 07:51:50;;;;;;;5.57;5.07;;;10.50;99.90;;;;;;4202135;28;20090;-59
2023/04/25 07:54:13;;;;;;;6.35;4.57;;;10.50;99.90;;;;;;4206528;28;20157;-59
2023/04/25 07:56:33;;;;;;;8.82;4.55;;;10.50;99.90;;;;;;4204722;28;20070;-59
2023/04/25 07:59:11;;;;;;;7.30;4.07;;;10.60;99.90;;;;;;4204989;28;20036;-59
2023/04/25 08:01:31;;;;;;;7.38;4.70;;;10.70;99.90;;;;;;4203359;28;20102;-59
2023/04/25 08:03:50;;;;;;;5.85;3.70;;;10.90;99.90;;;;;;4204607;28;20035;-59
2023/04/25 08:06:10;;;;;;;11.73;3.97;;;11.00;99.90;;;;;;4206197;28;20094;-60
2023/04/25 08:08:30;;;;;;;4.60;4.15;;;11.10;99.90;;;;;;4205397;28;20243;-59
2023/04/25 08:10:50;;;;;;;7.90;4.00;;;11.30;99.90;;;;;;4202412;28;20055;-59
2023/04/25 08:13:10;;;;;;;6.88;4.55;;;11.50;99.90;;;;;;4204709;28;20374;-59
2023/04/25 08:15:30;;;;;;;6.25;3.92;;;12.00;99.90;;;;;;4207016;28;20052;-59
2023/04/25 08:17:49;;;;;;;3.95;3.40;;;12.30;99.90;;;;;;4205878;28;20081;-59
2023/04/25 08:20:10;;;;;;;6.38;3.90;;;12.50;99.90;;;;;;4207696;28;20039;-58
2023/04/25 08:22:30;;;;;;;9.57;3.60;;;12.50;99.90;;;;;;4205814;28;20082;-57
2023/04/25 08:24:50;;;;;;;3.63;3.33;;;12.40;99.90;;;;;;4206097;28;20063;-59
2023/04/25 08:27:10;;;;;;;7.20;3.92;;;12.30;99.90;;;;;;4207463;28;20055;-59
2023/04/25 08:29:30;;;;;;;7.05;4.07;;;12.30;99.90;;;;;;4205496;28;20044;-59
2023/04/25 08:31:50;;;;;;;4.97;3.67;;;12.30;99.90;;;;;;4207777;28;20044;-59
2023/04/25 08:34:10;;;;;;;3.72;3.38;;;12.30;99.90;;;;;;4208619;28;20448;-59
2023/04/25 08:36:31;;;;;;;6.63;3.60;;;12.50;99.90;;;;;;4208678;28;20066;-59
2023/04/25 08:38:59;;;;;;;8.75;3.70;;;13.10;99.90;;;;;;4205106;28;20068;-59
2023/04/25 08:41:20;;;;;;;5.60;3.10;;;13.60;99.90;;;;;;4205457;28;20052;-59
2023/04/25 08:43:43;;;;;;;2.90;2.70;;;13.70;99.90;;;;;;4205664;28;20443;-59
2023/04/25 08:46:03;;;;;;;3.33;2.83;;;13.50;99.90;;;;;;4206873;28;20059;-59
2023/04/25 08:48:26;;;;;;;8.23;3.97;;;13.30;99.90;;;;;;4203571;28;20265;-59
2023/04/25 08:50:51;;;;;;;5.93;3.38;;;13.40;99.90;;;;;;4203647;28;20430;-59
2023/04/25 08:53:17;;;;;;;5.35;2.92;;;13.50;99.90;;;;;;4204438;28;20393;-60
2023/04/25 08:55:41;;;;;;;4.18;2.40;;;13.60;99.90;;;;;;4205748;28;20358;-59
2023/04/25 08:58:01;;;;;;;3.92;3.65;;;13.80;99.90;;;;;;4210049;28;20078;-59
2023/04/25 09:00:22;;;;;;;4.07;2.95;;;13.70;99.90;;;;;;4208634;28;20067;-59
2023/04/25 09:02:43;;;;;;;3.85;3.35;;;13.80;99.90;;;;;;4205252;28;20062;-59
2023/04/25 09:05:06;;;;;;;2.78;2.35;;;13.80;99.90;;;;;;4207869;28;20051;-59
2023/04/25 09:07:26;;;;;;;6.32;3.17;;;13.80;99.90;;;;;;4208240;28;20048;-59
2023/04/25 09:09:46;;;;;;;3.65;2.63;;;13.90;99.90;;;;;;4207085;28;20073;-59
2023/04/25 09:12:06;;;;;;;4.57;2.08;;;14.00;99.90;;;;;;4206092;28;20058;-59
2023/04/25 09:14:27;;;;;;;3.55;2.63;;;14.10;99.90;;;;;;4206114;28;20079;-60
2023/04/25 09:16:56;;;;;;;4.45;2.33;;;14.20;99.90;;;;;;4203423;28;20047;-59
2023/04/25 09:19:24;;;;;;;6.45;3.22;;;14.50;99.90;;;;;;4207295;28;20055;-59
2023/04/25 09:22:01;;;;;;;7.07;2.67;;;14.20;99.90;;;;;;4205689;28;20044;-59
2023/04/25 09:24:41;;;;;;;4.43;2.10;;;14.20;99.90;;;;;;4205234;28;20288;-59
2023/04/25 09:27:07;;;;;;;4.82;3.30;;;14.50;99.90;;;;;;4205281;28;20418;-59
2023/04/25 09:29:34;;;;;;;2.15;1.95;;;14.60;99.90;;;;;;4205382;28;20059;-59
2023/04/25 09:32:18;;;;;;;3.22;2.08;;;14.70;99.90;;;;;;4206564;28;20042;-60
2023/04/25 09:35:05;;;;;;;3.00;2.88;;;14.90;99.90;;;;;;4206369;28;20040;-59
2023/04/25 09:37:26;;;;;;;11.57;2.35;;;15.10;99.90;;;;;;4205900;28;20043;-60
2023/04/25 09:39:51;;;;;;;2.97;2.28;;;15.20;99.90;;;;;;4205531;28;20071;-59
2023/04/25 09:42:10;;;;;;;9.18;3.00;;;15.20;99.90;;;;;;4203970;28;20067;-59
2023/04/25 09:44:30;;;;;;;4.93;2.80;;;15.30;99.90;;;;;;4206383;28;20051;-60
2023/04/25 09:46:53;;;;;;;16.45;11.48;;;15.40;99.90;;;;;;4207873;28;20090;-60
2023/04/25 09:49:14;;;;;;;9.90;7.78;;;15.60;99.90;;;;;;4203877;28;20110;-60
2023/04/25 09:51:34;;;;;;;3.20;2.22;;;15.90;99.90;;;;;;4207209;28;20050;-60
2023/04/25 09:53:54;;;;;;;6.90;3.28;;;16.00;99.90;;;;;;4206889;28;20371;-60
2023/04/25 09:56:14;;;;;;;3.83;3.00;;;16.00;99.90;;;;;;4205114;28;20288;-60
2023/04/25 09:58:35;;;;;;;4.18;2.72;;;15.90;99.90;;;;;;4206419;28;20146;-59
2023/04/25 10:01:00;;;;;;;5.13;3.15;;;15.80;99.90;;;;;;4203918;28;20083;-60
2023/04/25 10:03:22;;;;;;;4.45;2.30;;;15.70;99.90;;;;;;4206931;28;20108;-60
2023/04/25 10:05:43;;;;;;;6.18;3.65;;;15.70;99.90;;;;;;4206563;28;20039;-60
2023/04/25 10:08:04;;;;;;;3.45;1.70;;;15.80;99.90;;;;;;4206103;28;20231;-59
2023/04/25 10:10:27;;;;;;;2.75;2.25;;;16.00;99.90;;;;;;4201048;28;20078;-60
2023/04/25 10:12:49;;;;;;;4.88;2.38;;;16.30;99.90;;;;;;4207117;28;20047;-60
2023/04/25 10:15:10;;;;;;;3.58;1.73;;;16.70;99.90;;;;;;4204985;28;20051;-59
2023/04/25 10:17:32;;;;;;;6.78;2.17;;;17.10;99.90;;;;;;4199040;28;20107;-62
2023/04/25 10:19:54;;;;;;;4.38;1.80;;;17.60;99.90;;;;;;4201702;28;20090;-62
2023/04/25 10:22:30;;;;;;;2.28;2.10;;;17.30;99.90;;;;;;4204190;28;20043;-62
2023/04/25 10:24:51;;;;;;;3.92;1.48;;;17.10;99.90;;;;;;4202402;28;20047;-62
2023/04/25 10:27:10;;;;;;;3.20;1.52;;;17.60;99.90;;;;;;4200015;28;20060;-62
2023/04/25 10:29:30;;;;;;;5.05;1.40;;;17.50;99.90;;;;;;4207823;28;20046;-62
2023/04/25 10:31:51;;;;;;;2.20;1.55;;;16.90;99.90;;;;;;4207644;28;20115;-61
2023/04/25 10:34:10;;;;;;;3.55;1.30;;;16.10;99.90;;;;;;4201631;28;20393;-61
2023/04/25 10:36:34;;;;;;;2.70;1.65;;;16.20;99.90;;;;;;4207900;28;20235;-61
2023/04/25 10:38:54;;;;;;;3.75;1.63;;;16.80;99.90;;;;;;4208879;28;20070;-61
2023/04/25 10:41:14;;;;;;;1.67;1.33;;;16.70;99.90;;;;;;4203860;28;20052;-61
2023/04/25 10:43:38;;;;;;;2.60;1.42;;;16.90;99.90;;;;;;4203596;28;20231;-61
2023/04/25 10:46:02;;;;;;;3.22;2.08;;;17.00;99.90;;;;;;4210620;28;20085;-61
2023/04/25 10:48:55;;;;;;;3.00;1.33;;;17.10;99.90;;;;;;4207756;28;20082;-61
2023/04/25 10:51:26;;;;;;;1.55;1.40;;;16.50;99.90;;;;;;4205486;28;20059;-61
2023/04/25 10:53:56;;;;;;;3.42;1.70;;;16.70;99.90;;;;;;4207866;28;20055;-61
2023/04/25 10:56:23;;;;;;;2.15;1.85;;;16.80;99.90;;;;;;4207436;28;20242;-61
2023/04/25 10:58:45;;;;;;;4.10;2.65;;;17.00;99.90;;;;;;4204540;28;20106;-61
2023/04/25 11:01:06;;;;;;;2.05;1.33;;;16.70;99.90;;;;;;4206404;28;20051;-61
2023/04/25 11:03:26;;;;;;;4.38;1.88;;;17.00;99.90;;;;;;4205358;28;20047;-61
2023/04/25 11:05:49;;;;;;;7.75;1.98;;;17.20;99.90;;;;;;4205084;28;20052;-61
2023/04/25 11:08:47;;;;;;;2.85;1.80;;;17.10;99.90;;;;;;4200886;28;20056;-61
2023/04/25 11:11:08;;;;;;;1.50;1.30;;;17.60;99.90;;;;;;4203429;28;20125;-61
2023/04/25 11:13:31;;;;;;;1.50;1.40;;;17.30;99.90;;;;;;4205493;28;20278;-61
2023/04/25 11:15:51;;;;;;;7.25;2.65;;;17.50;99.90;;;;;;4202848;28;20243;-61
2023/04/25 11:18:32;;;;;;;1.75;1.30;;;17.40;99.90;;;;;;4192883;28;20075;-61
2023/04/25 11:20:52;;;;;;;1.95;1.60;;;17.00;99.90;;;;;;4201552;28;20370;-61
2023/04/25 11:23:11;;;;;;;2.13;1.40;;;16.70;99.90;;;;;;4203618;28;20052;-61
2023/04/25 11:25:31;;;;;;;3.65;1.85;;;16.60;99.90;;;;;;4204311;28;20042;-61
2023/04/25 11:27:53;;;;;;;1.33;1.23;;;16.70;99.90;;;;;;4201427;28;20108;-61
2023/04/25 11:30:15;;;;;;;3.00;1.75;;;17.10;99.90;;;;;;4207657;28;20051;-61
2023/04/25 11:32:35;;;;;;;3.10;1.20;;;17.60;99.90;;;;;;4205460;28;20425;-61
2023/04/25 11:34:55;;;;;;;3.50;1.83;;;17.70;99.90;;;;;;4204254;28;20051;-61
2023/04/25 11:37:15;;;;;;;2.25;1.30;;;17.60;99.90;;;;;;4204235;28;20083;-61
2023/04/25 11:39:35;;;;;;;3.13;1.30;;;17.50;99.90;;;;;;4206880;28;20100;-61
2023/04/25 11:41:55;;;;;;;2.00;1.42;;;17.40;99.90;;;;;;4203898;28;20051;-61
2023/04/25 11:44:19;;;;;;;3.63;1.42;;;17.50;99.90;;;;;;4202394;28;20043;-61
2023/04/25 11:46:39;;;;;;;2.97;1.17;;;17.80;99.90;;;;;;4205241;28;20059;-62
2023/04/25 11:48:59;;;;;;;4.43;1.83;;;18.20;99.90;;;;;;4206026;28;20432;-62
2023/04/25 11:51:19;;;;;;;3.72;1.10;;;17.90;99.90;;;;;;4207414;28;20059;-62
2023/04/25 11:53:42;;;;;;;5.35;1.98;;;17.80;99.90;;;;;;4209101;28;20086;-61
2023/04/25 11:56:10;;;;;;;5.03;1.20;;;17.90;99.90;;;;;;4206118;28;20075;-61
2023/04/25 11:58:30;;;;;;;4.78;1.42;;;18.00;99.90;;;;;;4207185;28;20120;-61
2023/04/25 12:00:50;;;;;;;4.85;2.10;;;18.00;99.90;;;;;;4205971;28;20051;-61
2023/04/25 12:03:10;;;;;;;2.17;1.30;;;18.00;99.90;;;;;;4200606;28;20108;-62
2023/04/25 12:05:33;;;;;;;3.13;1.30;;;18.00;99.80;;;;;;4204640;28;20039;-62
2023/04/25 12:07:55;;;;;;;6.30;1.58;;;18.00;99.90;;;;;;4208169;28;20074;-61
2023/04/25 12:10:16;;;;;;;2.55;1.92;;;18.10;99.90;;;;;;4209647;28;20324;-62
2023/04/25 12:12:37;;;;;;;2.30;1.10;;;18.10;99.60;;;;;;4209205;28;20370;-61
2023/04/25 12:15:08;;;;;;;3.25;1.10;;;18.20;99.70;;;;;;4206611;28;20060;-62
2023/04/25 12:17:28;;;;;;;4.63;2.65;;;18.50;98.80;;;;;;4207570;28;20257;-62
2023/04/25 12:19:48;;;;;;;2.63;1.25;;;18.80;99.30;;;;;;4206882;28;20235;-62